sensor_id;sensor_type;location;lat;lon;timestamp;P1;durP1;ratioP1;P2;durP2;ratioP2
9208;SDS011;4639;48.862;9.188;2023-02-08T00:00:58;70.57;;;40.10;;
9208;SDS011;4639;48.862;9.188;2023-02-08T00:03:24;74.67;;;38.40;;
9208;SDS011;4639;48.862;9.188;2023-02-08T00:05:51;63.00;;;36.03;;
9208;SDS011;4639;48.862;9.188;2023-02-08T00:08:17;65.43;;;36.13;;
9208;SDS011;4639;48.862;9.188;2023-02-08T00:10:45;58.57;;;33.27;;
9208;SDS011;4639;48.862;9.188;2023-02-08T00:13:11;45.00;;;26.37;;
9208;SDS011;4639;48.862;9.188;2023-02-08T00:15:40;56.53;;;32.80;;
9208;SDS011;4639;48.862;9.188;2023-02-08T00:18:07;56.67;;;30.40;;
9208;SDS011;4639;48.862;9.188;2023-02-08T00:20:33;38.57;;;23.60;;
9208;SDS011;4639;48.862;9.188;2023-02-08T00:22:58;32.07;;;20.90;;
9208;SDS011;4639;48.862;9.188;2023-02-08T00:25:24;31.20;;;20.20;;
9208;SDS011;4639;48.862;9.188;2023-02-08T00:27:49;28.60;;;18.90;;
9208;SDS011;4639;48.862;9.188;2023-02-08T00:30:15;28.93;;;18.43;;
9208;SDS011;4639;48.862;9.188;2023-02-08T00:32:41;31.90;;;18.80;;
9208;SDS011;4639;48.862;9.188;2023-02-08T00:35:06;31.57;;;20.00;;
9208;SDS011;4639;48.862;9.188;2023-02-08T00:37:32;27.17;;;18.47;;
9208;SDS011;4639;48.862;9.188;2023-02-08T00:39:58;29.17;;;19.47;;
9208;SDS011;4639;48.862;9.188;2023-02-08T00:42:26;30.43;;;19.50;;
9208;SDS011;4639;48.862;9.188;2023-02-08T00:44:52;26.03;;;18.67;;
9208;SDS011;4639;48.862;9.188;2023-02-08T00:47:18;29.03;;;18.37;;
9208;SDS011;4639;48.862;9.188;2023-02-08T00:49:43;33.93;;;20.83;;
9208;SDS011;4639;48.862;9.188;2023-02-08T00:52:09;30.07;;;20.87;;
9208;SDS011;4639;48.862;9.188;2023-02-08T00:54:34;37.57;;;22.33;;
9208;SDS011;4639;48.862;9.188;2023-02-08T00:57:01;32.83;;;20.93;;
9208;SDS011;4639;48.862;9.188;2023-02-08T00:59:26;34.07;;;20.50;;
9208;SDS011;4639;48.862;9.188;2023-02-08T01:01:52;30.97;;;18.97;;
9208;SDS011;4639;48.862;9.188;2023-02-08T01:04:17;35.60;;;20.90;;
9208;SDS011;4639;48.862;9.188;2023-02-08T01:06:43;28.77;;;19.57;;
9208;SDS011;4639;48.862;9.188;2023-02-08T01:09:08;30.03;;;18.60;;
9208;SDS011;4639;48.862;9.188;2023-02-08T01:11:36;27.87;;;19.43;;
9208;SDS011;4639;48.862;9.188;2023-02-08T01:14:02;26.37;;;18.30;;
9208;SDS011;4639;48.862;9.188;2023-02-08T01:16:30;28.23;;;17.63;;
9208;SDS011;4639;48.862;9.188;2023-02-08T01:18:57;28.97;;;17.47;;
9208;SDS011;4639;48.862;9.188;2023-02-08T01:21:26;26.93;;;17.33;;
9208;SDS011;4639;48.862;9.188;2023-02-08T01:23:53;24.50;;;15.77;;
9208;SDS011;4639;48.862;9.188;2023-02-08T01:26:19;22.43;;;15.90;;
9208;SDS011;4639;48.862;9.188;2023-02-08T01:28:45;24.50;;;15.90;;
9208;SDS011;4639;48.862;9.188;2023-02-08T01:31:18;24.00;;;15.43;;
9208;SDS011;4639;48.862;9.188;2023-02-08T01:33:48;22.73;;;15.60;;
9208;SDS011;4639;48.862;9.188;2023-02-08T01:36:14;23.13;;;15.50;;
9208;SDS011;4639;48.862;9.188;2023-02-08T01:38:40;21.17;;;14.90;;
9208;SDS011;4639;48.862;9.188;2023-02-08T01:41:08;21.63;;;15.80;;
9208;SDS011;4639;48.862;9.188;2023-02-08T01:46:38;19.83;;;14.87;;
9208;SDS011;4639;48.862;9.188;2023-02-08T01:49:18;20.17;;;14.87;;
9208;SDS011;4639;48.862;9.188;2023-02-08T01:52:02;21.03;;;14.30;;
9208;SDS011;4639;48.862;9.188;2023-02-08T01:54:30;20.13;;;14.50;;
9208;SDS011;4639;48.862;9.188;2023-02-08T01:57:00;18.90;;;13.60;;
9208;SDS011;4639;48.862;9.188;2023-02-08T01:59:33;21.37;;;15.23;;
9208;SDS011;4639;48.862;9.188;2023-02-08T02:02:03;18.93;;;14.10;;
9208;SDS011;4639;48.862;9.188;2023-02-08T02:04:31;19.73;;;14.23;;
9208;SDS011;4639;48.862;9.188;2023-02-08T02:06:59;21.07;;;15.00;;
9208;SDS011;4639;48.862;9.188;2023-02-08T02:09:45;18.90;;;14.80;;
9208;SDS011;4639;48.862;9.188;2023-02-08T02:12:17;19.03;;;14.17;;
9208;SDS011;4639;48.862;9.188;2023-02-08T02:14:44;17.03;;;13.87;;
9208;SDS011;4639;48.862;9.188;2023-02-08T02:17:10;18.40;;;13.73;;
9208;SDS011;4639;48.862;9.188;2023-02-08T02:25:33;20.40;;;14.27;;
9208;SDS011;4639;48.862;9.188;2023-02-08T02:28:17;18.50;;;13.50;;
9208;SDS011;4639;48.862;9.188;2023-02-08T02:44:37;19.37;;;13.87;;
9208;SDS011;4639;48.862;9.188;2023-02-08T02:47:31;17.17;;;13.23;;
9208;SDS011;4639;48.862;9.188;2023-02-08T02:50:22;18.23;;;13.23;;
9208;SDS011;4639;48.862;9.188;2023-02-08T02:53:00;16.73;;;13.07;;
9208;SDS011;4639;48.862;9.188;2023-02-08T02:55:50;18.87;;;13.37;;
9208;SDS011;4639;48.862;9.188;2023-02-08T02:58:20;17.33;;;13.07;;
9208;SDS011;4639;48.862;9.188;2023-02-08T03:00:55;20.37;;;14.60;;
9208;SDS011;4639;48.862;9.188;2023-02-08T03:03:23;17.50;;;13.57;;
9208;SDS011;4639;48.862;9.188;2023-02-08T03:05:51;19.73;;;13.67;;
9208;SDS011;4639;48.862;9.188;2023-02-08T03:08:48;21.33;;;13.70;;
9208;SDS011;4639;48.862;9.188;2023-02-08T03:16:31;18.20;;;12.90;;
9208;SDS011;4639;48.862;9.188;2023-02-08T03:19:19;21.50;;;13.57;;
9208;SDS011;4639;48.862;9.188;2023-02-08T03:21:59;16.70;;;12.87;;
9208;SDS011;4639;48.862;9.188;2023-02-08T03:27:32;19.20;;;13.10;;
9208;SDS011;4639;48.862;9.188;2023-02-08T03:30:26;22.53;;;14.00;;
9208;SDS011;4639;48.862;9.188;2023-02-08T03:33:02;19.43;;;13.40;;
9208;SDS011;4639;48.862;9.188;2023-02-08T03:35:38;19.40;;;13.90;;
9208;SDS011;4639;48.862;9.188;2023-02-08T03:38:15;18.57;;;13.93;;
9208;SDS011;4639;48.862;9.188;2023-02-08T03:40:46;17.60;;;12.67;;
9208;SDS011;4639;48.862;9.188;2023-02-08T03:43:15;18.00;;;12.47;;
9208;SDS011;4639;48.862;9.188;2023-02-08T03:45:51;20.47;;;12.53;;
9208;SDS011;4639;48.862;9.188;2023-02-08T03:48:39;20.17;;;12.93;;
9208;SDS011;4639;48.862;9.188;2023-02-08T03:51:10;17.63;;;12.93;;
9208;SDS011;4639;48.862;9.188;2023-02-08T03:53:36;16.77;;;12.67;;
9208;SDS011;4639;48.862;9.188;2023-02-08T03:56:13;20.17;;;13.10;;
9208;SDS011;4639;48.862;9.188;2023-02-08T03:58:45;15.37;;;12.70;;
9208;SDS011;4639;48.862;9.188;2023-02-08T04:01:20;17.27;;;12.77;;
9208;SDS011;4639;48.862;9.188;2023-02-08T04:03:50;17.50;;;12.60;;
9208;SDS011;4639;48.862;9.188;2023-02-08T04:06:20;18.47;;;13.57;;
9208;SDS011;4639;48.862;9.188;2023-02-08T04:08:47;17.27;;;12.63;;
9208;SDS011;4639;48.862;9.188;2023-02-08T04:11:13;18.53;;;13.63;;
9208;SDS011;4639;48.862;9.188;2023-02-08T04:13:38;18.83;;;13.20;;
9208;SDS011;4639;48.862;9.188;2023-02-08T04:16:04;18.27;;;12.93;;
9208;SDS011;4639;48.862;9.188;2023-02-08T04:18:30;16.77;;;12.60;;
9208;SDS011;4639;48.862;9.188;2023-02-08T04:20:55;19.47;;;13.13;;
9208;SDS011;4639;48.862;9.188;2023-02-08T04:23:21;17.17;;;12.93;;
9208;SDS011;4639;48.862;9.188;2023-02-08T04:25:46;23.93;;;13.97;;
9208;SDS011;4639;48.862;9.188;2023-02-08T04:28:12;19.00;;;11.80;;
9208;SDS011;4639;48.862;9.188;2023-02-08T04:30:38;18.53;;;13.23;;
9208;SDS011;4639;48.862;9.188;2023-02-08T04:33:03;18.40;;;12.57;;
9208;SDS011;4639;48.862;9.188;2023-02-08T04:35:29;17.80;;;12.83;;
9208;SDS011;4639;48.862;9.188;2023-02-08T04:37:54;20.00;;;13.50;;
9208;SDS011;4639;48.862;9.188;2023-02-08T04:40:20;19.67;;;13.63;;
9208;SDS011;4639;48.862;9.188;2023-02-08T04:42:45;19.77;;;13.83;;
9208;SDS011;4639;48.862;9.188;2023-02-08T04:45:11;18.73;;;13.13;;
9208;SDS011;4639;48.862;9.188;2023-02-08T04:47:36;17.03;;;12.57;;
9208;SDS011;4639;48.862;9.188;2023-02-08T04:50:02;20.53;;;13.37;;
9208;SDS011;4639;48.862;9.188;2023-02-08T04:52:28;20.23;;;13.40;;
9208;SDS011;4639;48.862;9.188;2023-02-08T04:54:54;18.60;;;13.63;;
9208;SDS011;4639;48.862;9.188;2023-02-08T04:57:19;17.87;;;12.93;;
9208;SDS011;4639;48.862;9.188;2023-02-08T04:59:45;18.17;;;13.27;;
9208;SDS011;4639;48.862;9.188;2023-02-08T05:02:10;18.33;;;12.83;;
9208;SDS011;4639;48.862;9.188;2023-02-08T05:04:36;19.63;;;13.43;;
9208;SDS011;4639;48.862;9.188;2023-02-08T05:07:02;19.80;;;13.43;;
9208;SDS011;4639;48.862;9.188;2023-02-08T05:09:27;19.57;;;14.03;;
9208;SDS011;4639;48.862;9.188;2023-02-08T05:11:53;17.47;;;12.83;;
9208;SDS011;4639;48.862;9.188;2023-02-08T05:14:18;21.43;;;13.30;;
9208;SDS011;4639;48.862;9.188;2023-02-08T05:16:44;18.33;;;12.63;;
9208;SDS011;4639;48.862;9.188;2023-02-08T05:19:10;18.67;;;13.43;;
9208;SDS011;4639;48.862;9.188;2023-02-08T05:21:35;21.87;;;14.80;;
9208;SDS011;4639;48.862;9.188;2023-02-08T05:24:01;19.27;;;13.43;;
9208;SDS011;4639;48.862;9.188;2023-02-08T05:26:26;21.47;;;14.07;;
9208;SDS011;4639;48.862;9.188;2023-02-08T05:29:13;17.13;;;13.10;;
9208;SDS011;4639;48.862;9.188;2023-02-08T05:31:41;23.20;;;14.40;;
9208;SDS011;4639;48.862;9.188;2023-02-08T05:34:07;19.93;;;14.60;;
9208;SDS011;4639;48.862;9.188;2023-02-08T05:36:32;19.43;;;14.00;;
9208;SDS011;4639;48.862;9.188;2023-02-08T05:38:58;23.13;;;14.40;;
9208;SDS011;4639;48.862;9.188;2023-02-08T05:41:23;17.47;;;12.77;;
9208;SDS011;4639;48.862;9.188;2023-02-08T05:43:49;21.90;;;14.17;;
9208;SDS011;4639;48.862;9.188;2023-02-08T05:46:14;22.83;;;14.43;;
9208;SDS011;4639;48.862;9.188;2023-02-08T05:48:40;19.77;;;13.13;;
9208;SDS011;4639;48.862;9.188;2023-02-08T05:51:05;19.73;;;13.33;;
9208;SDS011;4639;48.862;9.188;2023-02-08T05:53:31;17.80;;;13.47;;
9208;SDS011;4639;48.862;9.188;2023-02-08T05:55:57;20.87;;;14.20;;
9208;SDS011;4639;48.862;9.188;2023-02-08T05:58:23;19.63;;;14.07;;
9208;SDS011;4639;48.862;9.188;2023-02-08T06:00:49;24.43;;;14.57;;
9208;SDS011;4639;48.862;9.188;2023-02-08T06:03:18;20.23;;;13.50;;
9208;SDS011;4639;48.862;9.188;2023-02-08T06:05:43;20.30;;;13.57;;
9208;SDS011;4639;48.862;9.188;2023-02-08T06:08:09;22.67;;;13.90;;
9208;SDS011;4639;48.862;9.188;2023-02-08T06:10:35;28.03;;;14.50;;
9208;SDS011;4639;48.862;9.188;2023-02-08T06:13:01;22.67;;;14.10;;
9208;SDS011;4639;48.862;9.188;2023-02-08T06:15:27;21.13;;;13.60;;
9208;SDS011;4639;48.862;9.188;2023-02-08T06:17:53;20.53;;;13.80;;
9208;SDS011;4639;48.862;9.188;2023-02-08T06:20:18;22.00;;;13.50;;
9208;SDS011;4639;48.862;9.188;2023-02-08T06:22:44;22.23;;;14.47;;
9208;SDS011;4639;48.862;9.188;2023-02-08T06:25:10;26.53;;;14.93;;
9208;SDS011;4639;48.862;9.188;2023-02-08T06:27:36;26.23;;;14.90;;
9208;SDS011;4639;48.862;9.188;2023-02-08T06:30:01;21.83;;;14.73;;
9208;SDS011;4639;48.862;9.188;2023-02-08T06:32:27;26.27;;;15.67;;
9208;SDS011;4639;48.862;9.188;2023-02-08T06:34:53;24.47;;;15.57;;
9208;SDS011;4639;48.862;9.188;2023-02-08T06:37:18;24.60;;;15.37;;
9208;SDS011;4639;48.862;9.188;2023-02-08T06:39:44;22.40;;;14.80;;
9208;SDS011;4639;48.862;9.188;2023-02-08T06:42:10;20.17;;;14.07;;
9208;SDS011;4639;48.862;9.188;2023-02-08T06:44:36;25.20;;;15.63;;
9208;SDS011;4639;48.862;9.188;2023-02-08T06:47:02;24.20;;;15.70;;
9208;SDS011;4639;48.862;9.188;2023-02-08T06:49:27;24.00;;;15.27;;
9208;SDS011;4639;48.862;9.188;2023-02-08T06:51:53;22.03;;;14.83;;
9208;SDS011;4639;48.862;9.188;2023-02-08T06:54:19;22.37;;;14.30;;
9208;SDS011;4639;48.862;9.188;2023-02-08T06:56:44;23.93;;;15.77;;
9208;SDS011;4639;48.862;9.188;2023-02-08T06:59:10;21.10;;;14.67;;
9208;SDS011;4639;48.862;9.188;2023-02-08T07:01:35;24.00;;;15.20;;
9208;SDS011;4639;48.862;9.188;2023-02-08T07:04:01;23.67;;;15.37;;
9208;SDS011;4639;48.862;9.188;2023-02-08T07:06:27;20.57;;;14.73;;
9208;SDS011;4639;48.862;9.188;2023-02-08T07:08:52;25.80;;;15.03;;
9208;SDS011;4639;48.862;9.188;2023-02-08T07:11:18;19.97;;;14.07;;
9208;SDS011;4639;48.862;9.188;2023-02-08T07:13:48;22.93;;;15.27;;
9208;SDS011;4639;48.862;9.188;2023-02-08T07:16:16;22.47;;;13.93;;
9208;SDS011;4639;48.862;9.188;2023-02-08T07:18:42;20.57;;;13.73;;
9208;SDS011;4639;48.862;9.188;2023-02-08T07:21:08;20.03;;;14.37;;
9208;SDS011;4639;48.862;9.188;2023-02-08T07:23:40;20.47;;;13.77;;
9208;SDS011;4639;48.862;9.188;2023-02-08T07:26:07;21.67;;;15.03;;
9208;SDS011;4639;48.862;9.188;2023-02-08T07:28:35;21.33;;;13.43;;
9208;SDS011;4639;48.862;9.188;2023-02-08T07:31:05;22.57;;;14.23;;
9208;SDS011;4639;48.862;9.188;2023-02-08T07:33:32;18.93;;;13.07;;
9208;SDS011;4639;48.862;9.188;2023-02-08T07:35:58;19.63;;;13.70;;
9208;SDS011;4639;48.862;9.188;2023-02-08T07:38:23;21.50;;;13.57;;
9208;SDS011;4639;48.862;9.188;2023-02-08T07:41:01;18.77;;;13.77;;
9208;SDS011;4639;48.862;9.188;2023-02-08T07:43:28;18.63;;;13.60;;
9208;SDS011;4639;48.862;9.188;2023-02-08T07:45:54;20.13;;;13.07;;
9208;SDS011;4639;48.862;9.188;2023-02-08T07:48:19;17.50;;;13.17;;
9208;SDS011;4639;48.862;9.188;2023-02-08T07:50:45;18.00;;;13.87;;
9208;SDS011;4639;48.862;9.188;2023-02-08T07:53:10;17.60;;;13.03;;
9208;SDS011;4639;48.862;9.188;2023-02-08T07:55:36;22.37;;;14.10;;
9208;SDS011;4639;48.862;9.188;2023-02-08T07:58:02;21.60;;;14.68;;
9208;SDS011;4639;48.862;9.188;2023-02-08T08:00:27;20.52;;;14.25;;
9208;SDS011;4639;48.862;9.188;2023-02-08T08:02:53;18.75;;;14.32;;
9208;SDS011;4639;48.862;9.188;2023-02-08T08:05:18;18.25;;;14.15;;
9208;SDS011;4639;48.862;9.188;2023-02-08T08:07:45;23.08;;;16.25;;
9208;SDS011;4639;48.862;9.188;2023-02-08T08:10:11;24.33;;;16.23;;
9208;SDS011;4639;48.862;9.188;2023-02-08T08:12:36;24.63;;;15.73;;
9208;SDS011;4639;48.862;9.188;2023-02-08T08:15:02;23.45;;;17.40;;
9208;SDS011;4639;48.862;9.188;2023-02-08T08:17:28;23.13;;;15.90;;
9208;SDS011;4639;48.862;9.188;2023-02-08T08:19:53;21.38;;;13.88;;
9208;SDS011;4639;48.862;9.188;2023-02-08T08:22:19;16.65;;;12.38;;
9208;SDS011;4639;48.862;9.188;2023-02-08T08:24:45;17.85;;;12.60;;
9208;SDS011;4639;48.862;9.188;2023-02-08T08:27:10;18.58;;;13.35;;
9208;SDS011;4639;48.862;9.188;2023-02-08T08:29:36;18.35;;;12.48;;
9208;SDS011;4639;48.862;9.188;2023-02-08T08:32:02;19.00;;;13.73;;
9208;SDS011;4639;48.862;9.188;2023-02-08T08:34:29;19.65;;;14.30;;
9208;SDS011;4639;48.862;9.188;2023-02-08T08:36:55;18.52;;;13.77;;
9208;SDS011;4639;48.862;9.188;2023-02-08T08:39:30;17.45;;;13.15;;
9208;SDS011;4639;48.862;9.188;2023-02-08T08:41:57;17.88;;;12.48;;
9208;SDS011;4639;48.862;9.188;2023-02-08T08:44:23;18.45;;;13.27;;
9208;SDS011;4639;48.862;9.188;2023-02-08T08:46:49;18.27;;;12.48;;
9208;SDS011;4639;48.862;9.188;2023-02-08T08:49:15;19.50;;;12.75;;
9208;SDS011;4639;48.862;9.188;2023-02-08T08:51:40;18.20;;;13.13;;
9208;SDS011;4639;48.862;9.188;2023-02-08T08:54:06;16.40;;;11.85;;
9208;SDS011;4639;48.862;9.188;2023-02-08T08:56:32;19.40;;;13.95;;
9208;SDS011;4639;48.862;9.188;2023-02-08T08:58:58;17.40;;;12.68;;
9208;SDS011;4639;48.862;9.188;2023-02-08T09:01:24;16.85;;;11.73;;
9208;SDS011;4639;48.862;9.188;2023-02-08T09:03:49;16.85;;;12.15;;
9208;SDS011;4639;48.862;9.188;2023-02-08T09:06:15;15.20;;;10.98;;
9208;SDS011;4639;48.862;9.188;2023-02-08T09:08:41;16.25;;;11.75;;
9208;SDS011;4639;48.862;9.188;2023-02-08T09:11:08;15.50;;;11.50;;
9208;SDS011;4639;48.862;9.188;2023-02-08T09:13:36;17.27;;;11.50;;
9208;SDS011;4639;48.862;9.188;2023-02-08T09:16:06;16.67;;;11.10;;
9208;SDS011;4639;48.862;9.188;2023-02-08T09:18:40;17.00;;;12.48;;
9208;SDS011;4639;48.862;9.188;2023-02-08T09:21:07;19.05;;;12.43;;
9208;SDS011;4639;48.862;9.188;2023-02-08T09:23:37;17.70;;;12.48;;
9208;SDS011;4639;48.862;9.188;2023-02-08T09:26:03;17.15;;;12.20;;
9208;SDS011;4639;48.862;9.188;2023-02-08T09:28:30;15.23;;;11.30;;
9208;SDS011;4639;48.862;9.188;2023-02-08T09:30:56;17.33;;;12.23;;
9208;SDS011;4639;48.862;9.188;2023-02-08T09:33:22;18.20;;;12.40;;
9208;SDS011;4639;48.862;9.188;2023-02-08T09:35:48;15.32;;;11.35;;
9208;SDS011;4639;48.862;9.188;2023-02-08T09:38:14;14.20;;;11.07;;
9208;SDS011;4639;48.862;9.188;2023-02-08T09:40:54;16.10;;;10.90;;
9208;SDS011;4639;48.862;9.188;2023-02-08T09:43:30;17.52;;;11.38;;
9208;SDS011;4639;48.862;9.188;2023-02-08T09:46:02;16.67;;;11.45;;
9208;SDS011;4639;48.862;9.188;2023-02-08T09:48:45;19.05;;;11.68;;
9208;SDS011;4639;48.862;9.188;2023-02-08T09:53:50;26.27;;;13.77;;
9208;SDS011;4639;48.862;9.188;2023-02-08T09:56:25;21.58;;;13.68;;
9208;SDS011;4639;48.862;9.188;2023-02-08T09:59:00;20.02;;;12.50;;
9208;SDS011;4639;48.862;9.188;2023-02-08T10:01:33;18.67;;;12.77;;
9208;SDS011;4639;48.862;9.188;2023-02-08T10:04:05;19.85;;;11.65;;
9208;SDS011;4639;48.862;9.188;2023-02-08T10:06:49;17.42;;;11.57;;
9208;SDS011;4639;48.862;9.188;2023-02-08T10:09:17;18.25;;;12.65;;
9208;SDS011;4639;48.862;9.188;2023-02-08T10:14:51;29.90;;;18.17;;
9208;SDS011;4639;48.862;9.188;2023-02-08T10:26:36;23.05;;;14.68;;
9208;SDS011;4639;48.862;9.188;2023-02-08T10:36:59;19.80;;;12.48;;
9208;SDS011;4639;48.862;9.188;2023-02-08T10:39:56;16.80;;;12.45;;
9208;SDS011;4639;48.862;9.188;2023-02-08T10:42:27;15.02;;;10.85;;
9208;SDS011;4639;48.862;9.188;2023-02-08T10:47:48;17.85;;;11.73;;
9208;SDS011;4639;48.862;9.188;2023-02-08T10:50:28;13.70;;;10.52;;
9208;SDS011;4639;48.862;9.188;2023-02-08T10:53:05;17.25;;;11.65;;
9208;SDS011;4639;48.862;9.188;2023-02-08T10:55:36;17.38;;;11.27;;
9208;SDS011;4639;48.862;9.188;2023-02-08T10:58:05;14.25;;;11.60;;
9208;SDS011;4639;48.862;9.188;2023-02-08T11:00:32;12.48;;;10.45;;
9208;SDS011;4639;48.862;9.188;2023-02-08T11:03:02;15.90;;;12.02;;
9208;SDS011;4639;48.862;9.188;2023-02-08T11:05:41;13.93;;;10.43;;
9208;SDS011;4639;48.862;9.188;2023-02-08T11:10:34;14.45;;;10.20;;
9208;SDS011;4639;48.862;9.188;2023-02-08T11:13:05;14.88;;;10.15;;
9208;SDS011;4639;48.862;9.188;2023-02-08T11:15:38;15.02;;;10.98;;
9208;SDS011;4639;48.862;9.188;2023-02-08T11:18:16;15.20;;;9.52;;
9208;SDS011;4639;48.862;9.188;2023-02-08T11:21:04;14.90;;;10.73;;
9208;SDS011;4639;48.862;9.188;2023-02-08T11:23:39;13.50;;;10.30;;
9208;SDS011;4639;48.862;9.188;2023-02-08T11:31:36;12.48;;;9.50;;
9208;SDS011;4639;48.862;9.188;2023-02-08T11:34:05;12.82;;;9.18;;
9208;SDS011;4639;48.862;9.188;2023-02-08T11:36:33;10.63;;;8.55;;
9208;SDS011;4639;48.862;9.188;2023-02-08T11:39:14;11.57;;;8.48;;
9208;SDS011;4639;48.862;9.188;2023-02-08T11:41:45;14.27;;;9.38;;
9208;SDS011;4639;48.862;9.188;2023-02-08T11:44:15;11.57;;;8.38;;
9208;SDS011;4639;48.862;9.188;2023-02-08T11:46:46;12.85;;;8.80;;
9208;SDS011;4639;48.862;9.188;2023-02-08T11:49:24;15.07;;;8.60;;
9208;SDS011;4639;48.862;9.188;2023-02-08T11:51:53;13.05;;;7.68;;
9208;SDS011;4639;48.862;9.188;2023-02-08T11:54:33;10.63;;;8.10;;
9208;SDS011;4639;48.862;9.188;2023-02-08T11:57:08;11.50;;;8.70;;
9208;SDS011;4639;48.862;9.188;2023-02-08T11:59:42;10.82;;;7.70;;
9208;SDS011;4639;48.862;9.188;2023-02-08T12:02:22;14.50;;;8.38;;
9208;SDS011;4639;48.862;9.188;2023-02-08T12:05:02;15.93;;;8.10;;
9208;SDS011;4639;48.862;9.188;2023-02-08T12:07:42;11.35;;;7.95;;
9208;SDS011;4639;48.862;9.188;2023-02-08T12:13:11;11.25;;;8.38;;
9208;SDS011;4639;48.862;9.188;2023-02-08T12:27:21;11.70;;;7.25;;
9208;SDS011;4639;48.862;9.188;2023-02-08T12:32:41;7.70;;;5.90;;
9208;SDS011;4639;48.862;9.188;2023-02-08T12:38:06;8.02;;;6.82;;
9208;SDS011;4639;48.862;9.188;2023-02-08T12:45:11;7.45;;;6.18;;
9208;SDS011;4639;48.862;9.188;2023-02-08T12:57:43;12.00;;;6.00;;
9208;SDS011;4639;48.862;9.188;2023-02-08T13:00:19;7.90;;;5.40;;
9208;SDS011;4639;48.862;9.188;2023-02-08T13:03:04;6.65;;;5.30;;
9208;SDS011;4639;48.862;9.188;2023-02-08T13:05:44;9.35;;;5.13;;
9208;SDS011;4639;48.862;9.188;2023-02-08T13:08:31;12.18;;;5.15;;
9208;SDS011;4639;48.862;9.188;2023-02-08T13:13:57;8.38;;;5.15;;
9208;SDS011;4639;48.862;9.188;2023-02-08T13:16:45;7.30;;;4.97;;
9208;SDS011;4639;48.862;9.188;2023-02-08T13:22:13;7.15;;;4.50;;
9208;SDS011;4639;48.862;9.188;2023-02-08T13:24:41;7.55;;;5.50;;
9208;SDS011;4639;48.862;9.188;2023-02-08T13:27:15;6.55;;;5.18;;
9208;SDS011;4639;48.862;9.188;2023-02-08T13:29:43;9.93;;;5.75;;
9208;SDS011;4639;48.862;9.188;2023-02-08T13:32:19;6.55;;;5.63;;
9208;SDS011;4639;48.862;9.188;2023-02-08T13:35:26;7.60;;;5.80;;
9208;SDS011;4639;48.862;9.188;2023-02-08T13:38:05;8.43;;;6.30;;
9208;SDS011;4639;48.862;9.188;2023-02-08T13:40:42;5.93;;;5.15;;
9208;SDS011;4639;48.862;9.188;2023-02-08T13:43:20;8.43;;;5.93;;
9208;SDS011;4639;48.862;9.188;2023-02-08T13:45:51;9.38;;;5.90;;
9208;SDS011;4639;48.862;9.188;2023-02-08T13:48:21;9.35;;;5.95;;
9208;SDS011;4639;48.862;9.188;2023-02-08T13:53:13;7.47;;;5.32;;
9208;SDS011;4639;48.862;9.188;2023-02-08T13:55:54;12.68;;;6.25;;
9208;SDS011;4639;48.862;9.188;2023-02-08T14:01:22;6.30;;;5.07;;
9208;SDS011;4639;48.862;9.188;2023-02-08T14:06:45;6.82;;;5.75;;
9208;SDS011;4639;48.862;9.188;2023-02-08T14:14:31;10.73;;;6.32;;
9208;SDS011;4639;48.862;9.188;2023-02-08T14:19:56;7.45;;;5.93;;
9208;SDS011;4639;48.862;9.188;2023-02-08T14:22:25;8.82;;;5.93;;
9208;SDS011;4639;48.862;9.188;2023-02-08T14:25:16;9.75;;;6.20;;
9208;SDS011;4639;48.862;9.188;2023-02-08T14:27:59;9.77;;;6.65;;
9208;SDS011;4639;48.862;9.188;2023-02-08T14:30:30;8.80;;;6.20;;
9208;SDS011;4639;48.862;9.188;2023-02-08T14:35:28;8.70;;;6.60;;
9208;SDS011;4639;48.862;9.188;2023-02-08T14:45:48;11.35;;;7.80;;
9208;SDS011;4639;48.862;9.188;2023-02-08T14:48:18;11.90;;;8.30;;
9208;SDS011;4639;48.862;9.188;2023-02-08T14:53:43;10.95;;;7.97;;
9208;SDS011;4639;48.862;9.188;2023-02-08T14:56:29;10.13;;;7.60;;
9208;SDS011;4639;48.862;9.188;2023-02-08T14:58:59;11.77;;;7.78;;
9208;SDS011;4639;48.862;9.188;2023-02-08T15:04:09;11.30;;;8.10;;
9208;SDS011;4639;48.862;9.188;2023-02-08T15:06:42;12.10;;;7.53;;
9208;SDS011;4639;48.862;9.188;2023-02-08T15:09:34;10.20;;;7.65;;
9208;SDS011;4639;48.862;9.188;2023-02-08T15:15:41;15.02;;;8.15;;
9208;SDS011;4639;48.862;9.188;2023-02-08T15:18:14;11.40;;;8.00;;
9208;SDS011;4639;48.862;9.188;2023-02-08T15:20:54;9.98;;;7.35;;
9208;SDS011;4639;48.862;9.188;2023-02-08T15:23:24;9.43;;;7.45;;
9208;SDS011;4639;48.862;9.188;2023-02-08T15:26:03;10.85;;;7.68;;
9208;SDS011;4639;48.862;9.188;2023-02-08T15:28:34;9.80;;;7.63;;
9208;SDS011;4639;48.862;9.188;2023-02-08T15:31:15;11.18;;;7.93;;
9208;SDS011;4639;48.862;9.188;2023-02-08T15:33:45;9.63;;;7.35;;
9208;SDS011;4639;48.862;9.188;2023-02-08T15:38:57;9.30;;;7.05;;
9208;SDS011;4639;48.862;9.188;2023-02-08T15:41:27;11.27;;;7.60;;
9208;SDS011;4639;48.862;9.188;2023-02-08T15:46:49;10.43;;;8.00;;
9208;SDS011;4639;48.862;9.188;2023-02-08T15:49:30;9.10;;;7.25;;
9208;SDS011;4639;48.862;9.188;2023-02-08T15:51:58;12.73;;;9.00;;
9208;SDS011;4639;48.862;9.188;2023-02-08T15:54:27;9.60;;;7.53;;
9208;SDS011;4639;48.862;9.188;2023-02-08T15:56:58;12.30;;;7.88;;
9208;SDS011;4639;48.862;9.188;2023-02-08T15:59:37;15.00;;;8.50;;
9208;SDS011;4639;48.862;9.188;2023-02-08T16:02:20;13.05;;;8.98;;
9208;SDS011;4639;48.862;9.188;2023-02-08T16:04:55;13.02;;;8.50;;
9208;SDS011;4639;48.862;9.188;2023-02-08T16:07:26;13.68;;;9.02;;
9208;SDS011;4639;48.862;9.188;2023-02-08T16:10:04;14.77;;;9.95;;
9208;SDS011;4639;48.862;9.188;2023-02-08T16:12:32;11.18;;;8.20;;
9208;SDS011;4639;48.862;9.188;2023-02-08T16:14:58;13.45;;;8.98;;
9208;SDS011;4639;48.862;9.188;2023-02-08T16:17:30;12.55;;;8.95;;
9208;SDS011;4639;48.862;9.188;2023-02-08T16:20:02;12.50;;;8.63;;
9208;SDS011;4639;48.862;9.188;2023-02-08T16:22:57;11.55;;;8.27;;
9208;SDS011;4639;48.862;9.188;2023-02-08T16:25:42;11.23;;;8.60;;
9208;SDS011;4639;48.862;9.188;2023-02-08T16:31:04;10.90;;;8.40;;
9208;SDS011;4639;48.862;9.188;2023-02-08T16:33:32;12.35;;;8.68;;
9208;SDS011;4639;48.862;9.188;2023-02-08T16:36:01;10.80;;;7.93;;
9208;SDS011;4639;48.862;9.188;2023-02-08T16:38:28;13.18;;;9.63;;
9208;SDS011;4639;48.862;9.188;2023-02-08T16:40:56;11.43;;;8.35;;
9208;SDS011;4639;48.862;9.188;2023-02-08T16:43:35;13.70;;;8.63;;
9208;SDS011;4639;48.862;9.188;2023-02-08T16:48:41;15.15;;;9.25;;
9208;SDS011;4639;48.862;9.188;2023-02-08T16:51:21;13.48;;;10.00;;
9208;SDS011;4639;48.862;9.188;2023-02-08T16:53:48;14.40;;;9.85;;
9208;SDS011;4639;48.862;9.188;2023-02-08T16:56:19;14.95;;;9.88;;
9208;SDS011;4639;48.862;9.188;2023-02-08T16:58:44;13.45;;;9.82;;
9208;SDS011;4639;48.862;9.188;2023-02-08T17:01:11;13.93;;;9.63;;
9208;SDS011;4639;48.862;9.188;2023-02-08T17:03:37;16.23;;;10.43;;
9208;SDS011;4639;48.862;9.188;2023-02-08T17:06:04;13.95;;;10.43;;
9208;SDS011;4639;48.862;9.188;2023-02-08T17:08:29;16.65;;;11.02;;
9208;SDS011;4639;48.862;9.188;2023-02-08T17:10:57;16.42;;;10.82;;
9208;SDS011;4639;48.862;9.188;2023-02-08T17:13:23;15.98;;;11.05;;
9208;SDS011;4639;48.862;9.188;2023-02-08T17:15:51;14.85;;;10.68;;
9208;SDS011;4639;48.862;9.188;2023-02-08T17:18:17;15.93;;;10.60;;
9208;SDS011;4639;48.862;9.188;2023-02-08T17:20:43;17.35;;;11.07;;
9208;SDS011;4639;48.862;9.188;2023-02-08T17:23:09;14.63;;;10.57;;
9208;SDS011;4639;48.862;9.188;2023-02-08T17:25:35;15.93;;;11.77;;
9208;SDS011;4639;48.862;9.188;2023-02-08T17:28:02;13.82;;;10.57;;
9208;SDS011;4639;48.862;9.188;2023-02-08T17:30:36;15.10;;;10.38;;
9208;SDS011;4639;48.862;9.188;2023-02-08T17:33:04;18.80;;;11.57;;
9208;SDS011;4639;48.862;9.188;2023-02-08T17:35:41;15.43;;;10.60;;
9208;SDS011;4639;48.862;9.188;2023-02-08T17:38:07;15.57;;;11.85;;
9208;SDS011;4639;48.862;9.188;2023-02-08T17:40:34;16.38;;;12.02;;
9208;SDS011;4639;48.862;9.188;2023-02-08T17:43:00;16.63;;;12.45;;